sensor_id;sensor_type;location;lat;lon;timestamp;P1;durP1;ratioP1;P2;durP2;ratioP2
16640;SDS011;8434;47.990;7.880;2023-03-03T00:01:38;6.37;;;4.70;;
16640;SDS011;8434;47.990;7.880;2023-03-03T00:04:24;5.83;;;4.30;;
16640;SDS011;8434;47.990;7.880;2023-03-03T00:07:09;5.70;;;4.60;;
16640;SDS011;8434;47.990;7.880;2023-03-03T00:09:55;5.40;;;4.27;;
16640;SDS011;8434;47.990;7.880;2023-03-03T00:12:46;5.67;;;4.30;;
16640;SDS011;8434;47.990;7.880;2023-03-03T00:15:32;5.53;;;3.87;;
16640;SDS011;8434;47.990;7.880;2023-03-03T00:18:21;5.90;;;4.00;;
16640;SDS011;8434;47.990;7.880;2023-03-03T00:21:14;6.47;;;4.73;;
16640;SDS011;8434;47.990;7.880;2023-03-03T00:24:13;7.27;;;3.90;;
16640;SDS011;8434;47.990;7.880;2023-03-03T00:27:00;5.27;;;4.20;;
16640;SDS011;8434;47.990;7.880;2023-03-03T00:29:47;4.73;;;3.87;;
16640;SDS011;8434;47.990;7.880;2023-03-03T00:32:36;4.97;;;4.20;;
16640;SDS011;8434;47.990;7.880;2023-03-03T00:35:23;4.80;;;4.27;;
16640;SDS011;8434;47.990;7.880;2023-03-03T00:38:11;4.90;;;3.97;;
16640;SDS011;8434;47.990;7.880;2023-03-03T00:40:57;5.73;;;4.37;;
16640;SDS011;8434;47.990;7.880;2023-03-03T00:43:43;7.10;;;4.87;;
16640;SDS011;8434;47.990;7.880;2023-03-03T00:46:30;6.20;;;4.90;;
16640;SDS011;8434;47.990;7.880;2023-03-03T00:49:18;7.57;;;4.77;;
16640;SDS011;8434;47.990;7.880;2023-03-03T00:52:09;5.00;;;3.80;;
16640;SDS011;8434;47.990;7.880;2023-03-03T00:54:55;5.83;;;4.50;;
16640;SDS011;8434;47.990;7.880;2023-03-03T00:57:40;4.33;;;3.93;;
16640;SDS011;8434;47.990;7.880;2023-03-03T01:00:28;7.27;;;4.53;;
16640;SDS011;8434;47.990;7.880;2023-03-03T01:03:16;6.70;;;4.20;;
16640;SDS011;8434;47.990;7.880;2023-03-03T01:06:02;5.60;;;4.47;;
16640;SDS011;8434;47.990;7.880;2023-03-03T01:08:49;6.07;;;3.93;;
16640;SDS011;8434;47.990;7.880;2023-03-03T01:11:34;4.87;;;4.10;;
16640;SDS011;8434;47.990;7.880;2023-03-03T01:14:20;5.93;;;4.10;;
16640;SDS011;8434;47.990;7.880;2023-03-03T01:17:05;5.83;;;4.23;;
16640;SDS011;8434;47.990;7.880;2023-03-03T01:19:52;4.87;;;4.13;;
16640;SDS011;8434;47.990;7.880;2023-03-03T01:22:37;5.73;;;4.27;;
16640;SDS011;8434;47.990;7.880;2023-03-03T01:25:23;5.03;;;4.47;;
16640;SDS011;8434;47.990;7.880;2023-03-03T01:28:08;6.50;;;4.03;;
16640;SDS011;8434;47.990;7.880;2023-03-03T01:30:54;6.23;;;4.10;;
16640;SDS011;8434;47.990;7.880;2023-03-03T01:33:44;10.13;;;4.43;;
16640;SDS011;8434;47.990;7.880;2023-03-03T01:36:31;7.20;;;4.23;;
16640;SDS011;8434;47.990;7.880;2023-03-03T01:39:16;6.37;;;4.10;;
16640;SDS011;8434;47.990;7.880;2023-03-03T01:42:01;7.27;;;4.37;;
16640;SDS011;8434;47.990;7.880;2023-03-03T01:44:47;6.03;;;4.07;;
16640;SDS011;8434;47.990;7.880;2023-03-03T01:47:33;5.07;;;4.00;;
16640;SDS011;8434;47.990;7.880;2023-03-03T01:50:20;6.80;;;4.80;;
16640;SDS011;8434;47.990;7.880;2023-03-03T01:53:12;5.83;;;4.00;;
16640;SDS011;8434;47.990;7.880;2023-03-03T01:56:00;5.03;;;4.00;;
16640;SDS011;8434;47.990;7.880;2023-03-03T01:58:46;4.77;;;4.10;;
16640;SDS011;8434;47.990;7.880;2023-03-03T02:01:33;7.30;;;4.20;;
16640;SDS011;8434;47.990;7.880;2023-03-03T02:04:19;7.60;;;4.20;;
16640;SDS011;8434;47.990;7.880;2023-03-03T02:07:05;6.53;;;3.93;;
16640;SDS011;8434;47.990;7.880;2023-03-03T02:09:56;5.83;;;3.87;;
16640;SDS011;8434;47.990;7.880;2023-03-03T02:12:42;6.93;;;4.10;;
16640;SDS011;8434;47.990;7.880;2023-03-03T02:15:30;5.53;;;3.80;;
16640;SDS011;8434;47.990;7.880;2023-03-03T02:18:16;4.33;;;3.50;;
16640;SDS011;8434;47.990;7.880;2023-03-03T02:21:04;6.30;;;4.10;;
16640;SDS011;8434;47.990;7.880;2023-03-03T02:23:52;7.47;;;4.00;;
16640;SDS011;8434;47.990;7.880;2023-03-03T02:26:40;5.87;;;3.73;;
16640;SDS011;8434;47.990;7.880;2023-03-03T02:29:27;5.30;;;3.90;;
16640;SDS011;8434;47.990;7.880;2023-03-03T02:32:12;6.17;;;4.00;;
16640;SDS011;8434;47.990;7.880;2023-03-03T02:34:58;6.43;;;3.90;;
16640;SDS011;8434;47.990;7.880;2023-03-03T02:37:43;5.40;;;3.60;;
16640;SDS011;8434;47.990;7.880;2023-03-03T02:40:30;6.63;;;4.53;;
16640;SDS011;8434;47.990;7.880;2023-03-03T02:43:19;6.23;;;3.90;;
16640;SDS011;8434;47.990;7.880;2023-03-03T02:46:06;5.47;;;4.23;;
16640;SDS011;8434;47.990;7.880;2023-03-03T02:48:52;7.07;;;4.30;;
16640;SDS011;8434;47.990;7.880;2023-03-03T02:51:37;5.77;;;4.13;;
16640;SDS011;8434;47.990;7.880;2023-03-03T02:54:23;6.83;;;4.20;;
16640;SDS011;8434;47.990;7.880;2023-03-03T02:57:09;7.37;;;4.00;;
16640;SDS011;8434;47.990;7.880;2023-03-03T02:59:56;9.77;;;3.90;;
16640;SDS011;8434;47.990;7.880;2023-03-03T03:02:41;5.37;;;3.73;;
16640;SDS011;8434;47.990;7.880;2023-03-03T03:05:27;4.47;;;3.87;;
16640;SDS011;8434;47.990;7.880;2023-03-03T03:08:14;5.97;;;4.10;;
16640;SDS011;8434;47.990;7.880;2023-03-03T03:10:59;6.30;;;3.80;;
16640;SDS011;8434;47.990;7.880;2023-03-03T03:13:46;7.83;;;3.83;;
16640;SDS011;8434;47.990;7.880;2023-03-03T03:16:35;5.73;;;3.90;;
16640;SDS011;8434;47.990;7.880;2023-03-03T03:19:21;6.53;;;3.97;;
16640;SDS011;8434;47.990;7.880;2023-03-03T03:22:07;6.27;;;3.70;;
16640;SDS011;8434;47.990;7.880;2023-03-03T03:24:53;5.17;;;3.93;;
16640;SDS011;8434;47.990;7.880;2023-03-03T03:27:38;4.13;;;3.63;;
16640;SDS011;8434;47.990;7.880;2023-03-03T03:30:24;5.53;;;3.63;;
16640;SDS011;8434;47.990;7.880;2023-03-03T03:33:11;5.07;;;4.07;;
16640;SDS011;8434;47.990;7.880;2023-03-03T03:35:57;5.90;;;4.03;;
16640;SDS011;8434;47.990;7.880;2023-03-03T03:38:43;4.77;;;3.73;;
16640;SDS011;8434;47.990;7.880;2023-03-03T03:41:29;6.87;;;3.67;;
16640;SDS011;8434;47.990;7.880;2023-03-03T03:44:14;7.47;;;3.87;;
16640;SDS011;8434;47.990;7.880;2023-03-03T03:47:00;4.87;;;4.03;;
16640;SDS011;8434;47.990;7.880;2023-03-03T03:49:48;4.90;;;4.27;;
16640;SDS011;8434;47.990;7.880;2023-03-03T03:52:33;7.47;;;4.10;;
16640;SDS011;8434;47.990;7.880;2023-03-03T03:55:20;4.90;;;3.73;;
16640;SDS011;8434;47.990;7.880;2023-03-03T03:58:06;5.30;;;4.20;;
16640;SDS011;8434;47.990;7.880;2023-03-03T04:00:51;7.03;;;3.70;;
16640;SDS011;8434;47.990;7.880;2023-03-03T04:03:37;4.93;;;3.50;;
16640;SDS011;8434;47.990;7.880;2023-03-03T04:06:28;7.47;;;4.07;;
16640;SDS011;8434;47.990;7.880;2023-03-03T04:09:13;6.53;;;3.90;;
16640;SDS011;8434;47.990;7.880;2023-03-03T04:11:59;5.87;;;3.73;;
16640;SDS011;8434;47.990;7.880;2023-03-03T04:14:48;5.53;;;3.63;;
16640;SDS011;8434;47.990;7.880;2023-03-03T04:17:33;5.97;;;4.40;;
16640;SDS011;8434;47.990;7.880;2023-03-03T04:20:20;3.80;;;3.40;;
16640;SDS011;8434;47.990;7.880;2023-03-03T04:23:07;6.07;;;3.73;;
16640;SDS011;8434;47.990;7.880;2023-03-03T04:25:52;5.10;;;3.70;;
16640;SDS011;8434;47.990;7.880;2023-03-03T04:28:39;5.17;;;3.57;;
16640;SDS011;8434;47.990;7.880;2023-03-03T04:31:24;4.97;;;3.60;;
16640;SDS011;8434;47.990;7.880;2023-03-03T04:34:12;4.80;;;3.40;;
16640;SDS011;8434;47.990;7.880;2023-03-03T04:36:58;4.20;;;3.60;;
16640;SDS011;8434;47.990;7.880;2023-03-03T04:39:46;5.40;;;3.93;;
16640;SDS011;8434;47.990;7.880;2023-03-03T04:42:32;5.30;;;3.67;;
16640;SDS011;8434;47.990;7.880;2023-03-03T04:45:17;4.83;;;3.47;;
16640;SDS011;8434;47.990;7.880;2023-03-03T04:48:04;4.57;;;3.50;;
16640;SDS011;8434;47.990;7.880;2023-03-03T04:50:50;5.20;;;3.63;;
16640;SDS011;8434;47.990;7.880;2023-03-03T04:53:37;4.73;;;3.70;;
16640;SDS011;8434;47.990;7.880;2023-03-03T04:56:26;4.63;;;3.27;;
16640;SDS011;8434;47.990;7.880;2023-03-03T04:59:12;5.37;;;3.40;;
16640;SDS011;8434;47.990;7.880;2023-03-03T05:01:58;3.90;;;3.50;;
16640;SDS011;8434;47.990;7.880;2023-03-03T05:04:44;4.80;;;3.47;;
16640;SDS011;8434;47.990;7.880;2023-03-03T05:07:29;5.43;;;3.50;;
16640;SDS011;8434;47.990;7.880;2023-03-03T05:10:15;4.27;;;3.60;;
16640;SDS011;8434;47.990;7.880;2023-03-03T05:13:01;4.37;;;3.63;;
16640;SDS011;8434;47.990;7.880;2023-03-03T05:15:48;4.73;;;3.70;;
16640;SDS011;8434;47.990;7.880;2023-03-03T05:18:33;5.90;;;3.30;;
16640;SDS011;8434;47.990;7.880;2023-03-03T05:21:19;3.83;;;3.10;;
16640;SDS011;8434;47.990;7.880;2023-03-03T05:24:04;5.90;;;3.60;;
16640;SDS011;8434;47.990;7.880;2023-03-03T05:26:50;4.70;;;3.30;;
16640;SDS011;8434;47.990;7.880;2023-03-03T05:29:37;4.80;;;3.93;;
16640;SDS011;8434;47.990;7.880;2023-03-03T05:32:22;4.77;;;3.93;;
16640;SDS011;8434;47.990;7.880;2023-03-03T05:35:08;5.70;;;3.40;;
16640;SDS011;8434;47.990;7.880;2023-03-03T05:37:54;5.17;;;3.90;;
16640;SDS011;8434;47.990;7.880;2023-03-03T05:40:40;5.33;;;3.73;;
16640;SDS011;8434;47.990;7.880;2023-03-03T05:43:26;5.00;;;3.70;;
16640;SDS011;8434;47.990;7.880;2023-03-03T05:46:13;4.77;;;3.63;;
16640;SDS011;8434;47.990;7.880;2023-03-03T05:48:59;6.30;;;3.93;;
16640;SDS011;8434;47.990;7.880;2023-03-03T05:51:44;7.23;;;4.87;;
16640;SDS011;8434;47.990;7.880;2023-03-03T05:54:30;6.53;;;3.83;;
16640;SDS011;8434;47.990;7.880;2023-03-03T05:57:15;5.60;;;3.53;;
16640;SDS011;8434;47.990;7.880;2023-03-03T06:00:01;4.63;;;3.43;;
16640;SDS011;8434;47.990;7.880;2023-03-03T06:02:57;6.20;;;3.27;;
16640;SDS011;8434;47.990;7.880;2023-03-03T06:05:43;3.50;;;3.07;;
16640;SDS011;8434;47.990;7.880;2023-03-03T06:08:28;4.17;;;3.23;;
16640;SDS011;8434;47.990;7.880;2023-03-03T06:11:15;6.43;;;4.00;;
16640;SDS011;8434;47.990;7.880;2023-03-03T06:14:02;5.93;;;3.00;;
16640;SDS011;8434;47.990;7.880;2023-03-03T06:16:48;5.23;;;3.23;;
16640;SDS011;8434;47.990;7.880;2023-03-03T06:19:34;5.57;;;3.60;;
16640;SDS011;8434;47.990;7.880;2023-03-03T06:22:20;3.43;;;2.70;;
16640;SDS011;8434;47.990;7.880;2023-03-03T06:25:05;3.67;;;2.97;;
16640;SDS011;8434;47.990;7.880;2023-03-03T06:27:50;3.70;;;3.30;;
16640;SDS011;8434;47.990;7.880;2023-03-03T06:30:36;3.63;;;2.87;;
16640;SDS011;8434;47.990;7.880;2023-03-03T06:33:21;2.93;;;2.57;;
16640;SDS011;8434;47.990;7.880;2023-03-03T06:36:08;2.90;;;2.67;;
16640;SDS011;8434;47.990;7.880;2023-03-03T06:38:54;4.50;;;2.57;;
16640;SDS011;8434;47.990;7.880;2023-03-03T06:41:39;4.27;;;3.07;;
16640;SDS011;8434;47.990;7.880;2023-03-03T06:44:25;5.10;;;3.10;;
16640;SDS011;8434;47.990;7.880;2023-03-03T06:47:10;3.70;;;2.90;;
16640;SDS011;8434;47.990;7.880;2023-03-03T06:49:56;4.50;;;2.80;;
16640;SDS011;8434;47.990;7.880;2023-03-03T06:52:43;6.73;;;2.87;;
16640;SDS011;8434;47.990;7.880;2023-03-03T06:55:28;4.63;;;3.33;;
16640;SDS011;8434;47.990;7.880;2023-03-03T06:58:14;4.93;;;3.17;;
16640;SDS011;8434;47.990;7.880;2023-03-03T07:01:00;5.87;;;3.43;;
16640;SDS011;8434;47.990;7.880;2023-03-03T07:03:46;6.57;;;3.80;;
16640;SDS011;8434;47.990;7.880;2023-03-03T07:06:31;5.70;;;4.10;;
16640;SDS011;8434;47.990;7.880;2023-03-03T07:09:20;4.00;;;3.30;;
16640;SDS011;8434;47.990;7.880;2023-03-03T07:12:09;5.27;;;3.47;;
16640;SDS011;8434;47.990;7.880;2023-03-03T07:14:56;5.53;;;3.20;;
16640;SDS011;8434;47.990;7.880;2023-03-03T07:17:46;6.30;;;3.37;;
16640;SDS011;8434;47.990;7.880;2023-03-03T07:20:34;4.87;;;3.50;;
16640;SDS011;8434;47.990;7.880;2023-03-03T07:23:20;3.77;;;3.20;;
16640;SDS011;8434;47.990;7.880;2023-03-03T07:26:08;4.57;;;3.43;;
16640;SDS011;8434;47.990;7.880;2023-03-03T07:28:56;4.40;;;2.70;;
16640;SDS011;8434;47.990;7.880;2023-03-03T07:31:44;4.33;;;3.33;;
16640;SDS011;8434;47.990;7.880;2023-03-03T07:34:34;4.37;;;3.00;;
16640;SDS011;8434;47.990;7.880;2023-03-03T07:37:23;8.00;;;3.30;;
16640;SDS011;8434;47.990;7.880;2023-03-03T07:40:23;4.00;;;3.40;;
16640;SDS011;8434;47.990;7.880;2023-03-03T07:43:18;4.60;;;3.47;;
16640;SDS011;8434;47.990;7.880;2023-03-03T07:49:15;4.90;;;3.10;;
16640;SDS011;8434;47.990;7.880;2023-03-03T07:52:16;3.83;;;2.87;;
16640;SDS011;8434;47.990;7.880;2023-03-03T07:55:19;5.60;;;3.50;;
16640;SDS011;8434;47.990;7.880;2023-03-03T07:58:14;4.00;;;3.17;;
16640;SDS011;8434;47.990;7.880;2023-03-03T08:04:04;5.07;;;2.77;;
16640;SDS011;8434;47.990;7.880;2023-03-03T08:06:54;4.50;;;3.30;;
16640;SDS011;8434;47.990;7.880;2023-03-03T08:09:43;3.33;;;2.63;;
16640;SDS011;8434;47.990;7.880;2023-03-03T08:12:32;4.63;;;2.90;;
16640;SDS011;8434;47.990;7.880;2023-03-03T08:15:20;4.10;;;2.90;;
16640;SDS011;8434;47.990;7.880;2023-03-03T08:18:12;4.50;;;3.07;;
16640;SDS011;8434;47.990;7.880;2023-03-03T08:21:00;5.17;;;3.00;;
16640;SDS011;8434;47.990;7.880;2023-03-03T08:23:47;7.23;;;2.90;;
16640;SDS011;8434;47.990;7.880;2023-03-03T08:26:34;4.80;;;3.13;;
16640;SDS011;8434;47.990;7.880;2023-03-03T08:29:20;4.13;;;2.80;;
16640;SDS011;8434;47.990;7.880;2023-03-03T08:32:05;3.63;;;3.23;;
16640;SDS011;8434;47.990;7.880;2023-03-03T08:34:50;5.50;;;2.70;;
16640;SDS011;8434;47.990;7.880;2023-03-03T08:37:37;4.03;;;3.03;;
16640;SDS011;8434;47.990;7.880;2023-03-03T08:40:22;6.87;;;3.20;;
16640;SDS011;8434;47.990;7.880;2023-03-03T08:43:08;4.47;;;3.43;;
16640;SDS011;8434;47.990;7.880;2023-03-03T08:45:55;5.70;;;3.00;;
16640;SDS011;8434;47.990;7.880;2023-03-03T08:48:42;5.63;;;2.97;;
16640;SDS011;8434;47.990;7.880;2023-03-03T08:51:27;5.13;;;2.80;;
16640;SDS011;8434;47.990;7.880;2023-03-03T08:54:14;5.33;;;2.90;;
16640;SDS011;8434;47.990;7.880;2023-03-03T08:56:59;4.83;;;3.30;;
16640;SDS011;8434;47.990;7.880;2023-03-03T08:59:45;6.90;;;3.80;;
16640;SDS011;8434;47.990;7.880;2023-03-03T09:02:30;5.87;;;4.37;;
16640;SDS011;8434;47.990;7.880;2023-03-03T09:05:16;7.60;;;4.77;;
16640;SDS011;8434;47.990;7.880;2023-03-03T09:08:02;7.03;;;4.13;;
16640;SDS011;8434;47.990;7.880;2023-03-03T09:10:49;7.13;;;4.80;;
16640;SDS011;8434;47.990;7.880;2023-03-03T09:13:34;7.00;;;4.63;;
16640;SDS011;8434;47.990;7.880;2023-03-03T09:16:20;5.80;;;5.13;;
16640;SDS011;8434;47.990;7.880;2023-03-03T09:19:15;7.07;;;4.70;;
16640;SDS011;8434;47.990;7.880;2023-03-03T09:22:19;8.10;;;5.47;;
16640;SDS011;8434;47.990;7.880;2023-03-03T09:25:05;8.10;;;5.60;;
16640;SDS011;8434;47.990;7.880;2023-03-03T09:27:59;7.57;;;5.43;;
16640;SDS011;8434;47.990;7.880;2023-03-03T09:30:46;12.37;;;5.67;;
16640;SDS011;8434;47.990;7.880;2023-03-03T09:33:39;10.90;;;6.07;;
16640;SDS011;8434;47.990;7.880;2023-03-03T09:36:26;10.27;;;5.73;;
16640;SDS011;8434;47.990;7.880;2023-03-03T09:39:15;8.17;;;5.80;;
16640;SDS011;8434;47.990;7.880;2023-03-03T09:42:08;8.60;;;5.67;;
16640;SDS011;8434;47.990;7.880;2023-03-03T09:45:03;10.87;;;5.93;;
16640;SDS011;8434;47.990;7.880;2023-03-03T09:47:55;9.83;;;5.80;;
16640;SDS011;8434;47.990;7.880;2023-03-03T09:50:47;7.37;;;5.60;;
16640;SDS011;8434;47.990;7.880;2023-03-03T09:53:37;8.60;;;6.00;;
16640;SDS011;8434;47.990;7.880;2023-03-03T09:56:27;9.53;;;5.93;;
16640;SDS011;8434;47.990;7.880;2023-03-03T09:59:18;7.07;;;5.70;;
16640;SDS011;8434;47.990;7.880;2023-03-03T10:02:27;9.20;;;6.33;;
16640;SDS011;8434;47.990;7.880;2023-03-03T10:05:20;11.03;;;6.73;;
16640;SDS011;8434;47.990;7.880;2023-03-03T10:08:16;12.83;;;7.40;;
16640;SDS011;8434;47.990;7.880;2023-03-03T10:11:10;11.80;;;7.63;;
16640;SDS011;8434;47.990;7.880;2023-03-03T10:14:09;17.27;;;7.33;;
16640;SDS011;8434;47.990;7.880;2023-03-03T10:17:02;18.53;;;8.50;;
16640;SDS011;8434;47.990;7.880;2023-03-03T10:19:54;13.77;;;7.07;;
16640;SDS011;8434;47.990;7.880;2023-03-03T10:22:45;16.97;;;8.13;;
16640;SDS011;8434;47.990;7.880;2023-03-03T10:25:41;14.43;;;7.70;;
16640;SDS011;8434;47.990;7.880;2023-03-03T10:28:33;15.93;;;7.27;;
16640;SDS011;8434;47.990;7.880;2023-03-03T10:31:22;13.57;;;7.93;;
16640;SDS011;8434;47.990;7.880;2023-03-03T10:34:15;12.03;;;7.97;;
16640;SDS011;8434;47.990;7.880;2023-03-03T10:37:04;10.27;;;7.20;;
16640;SDS011;8434;47.990;7.880;2023-03-03T10:39:58;12.07;;;7.30;;
16640;SDS011;8434;47.990;7.880;2023-03-03T10:51:54;13.97;;;7.43;;
16640;SDS011;8434;47.990;7.880;2023-03-03T10:54:46;13.63;;;7.13;;
16640;SDS011;8434;47.990;7.880;2023-03-03T10:57:34;10.83;;;7.10;;
16640;SDS011;8434;47.990;7.880;2023-03-03T11:00:21;11.30;;;7.23;;
16640;SDS011;8434;47.990;7.880;2023-03-03T11:06:28;10.47;;;7.00;;
16640;SDS011;8434;47.990;7.880;2023-03-03T11:12:24;11.00;;;7.03;;
16640;SDS011;8434;47.990;7.880;2023-03-03T11:15:17;8.90;;;6.93;;
16640;SDS011;8434;47.990;7.880;2023-03-03T11:18:09;11.30;;;7.07;;
16640;SDS011;8434;47.990;7.880;2023-03-03T11:20:58;14.13;;;7.37;;
16640;SDS011;8434;47.990;7.880;2023-03-03T11:23:51;9.57;;;6.63;;
16640;SDS011;8434;47.990;7.880;2023-03-03T11:26:41;10.90;;;7.00;;
16640;SDS011;8434;47.990;7.880;2023-03-03T11:29:34;11.67;;;7.17;;
16640;SDS011;8434;47.990;7.880;2023-03-03T11:32:25;11.93;;;7.03;;
16640;SDS011;8434;47.990;7.880;2023-03-03T11:35:18;11.60;;;6.43;;
16640;SDS011;8434;47.990;7.880;2023-03-03T11:38:09;8.97;;;6.43;;
16640;SDS011;8434;47.990;7.880;2023-03-03T11:40:58;10.13;;;7.27;;
16640;SDS011;8434;47.990;7.880;2023-03-03T11:43:46;9.03;;;6.80;;
16640;SDS011;8434;47.990;7.880;2023-03-03T11:46:35;10.23;;;7.07;;
16640;SDS011;8434;47.990;7.880;2023-03-03T11:49:23;9.93;;;6.70;;
16640;SDS011;8434;47.990;7.880;2023-03-03T11:52:15;9.83;;;7.30;;
16640;SDS011;8434;47.990;7.880;2023-03-03T11:55:06;8.83;;;7.27;;
16640;SDS011;8434;47.990;7.880;2023-03-03T11:57:53;9.07;;;6.57;;
16640;SDS011;8434;47.990;7.880;2023-03-03T12:00:44;11.10;;;7.20;;
16640;SDS011;8434;47.990;7.880;2023-03-03T12:03:35;10.07;;;7.00;;
16640;SDS011;8434;47.990;7.880;2023-03-03T12:06:26;9.03;;;6.40;;
16640;SDS011;8434;47.990;7.880;2023-03-03T12:09:22;10.83;;;7.23;;
16640;SDS011;8434;47.990;7.880;2023-03-03T12:12:12;12.70;;;7.40;;
16640;SDS011;8434;47.990;7.880;2023-03-03T12:15:01;9.10;;;6.63;;
16640;SDS011;8434;47.990;7.880;2023-03-03T12:18:02;10.30;;;7.30;;
16640;SDS011;8434;47.990;7.880;2023-03-03T12:20:54;10.03;;;6.97;;
16640;SDS011;8434;47.990;7.880;2023-03-03T12:23:45;10.37;;;7.10;;
16640;SDS011;8434;47.990;7.880;2023-03-03T12:26:37;8.23;;;6.43;;
16640;SDS011;8434;47.990;7.880;2023-03-03T12:29:25;9.23;;;6.50;;
16640;SDS011;8434;47.990;7.880;2023-03-03T12:32:15;8.73;;;6.30;;
16640;SDS011;8434;47.990;7.880;2023-03-03T12:35:05;9.27;;;7.03;;
16640;SDS011;8434;47.990;7.880;2023-03-03T12:37:55;9.60;;;7.30;;
16640;SDS011;8434;47.990;7.880;2023-03-03T12:40:43;9.50;;;6.70;;
16640;SDS011;8434;47.990;7.880;2023-03-03T12:43:34;8.27;;;6.77;;
16640;SDS011;8434;47.990;7.880;2023-03-03T12:46:24;8.77;;;6.43;;
16640;SDS011;8434;47.990;7.880;2023-03-03T12:49:12;8.50;;;6.53;;
16640;SDS011;8434;47.990;7.880;2023-03-03T12:52:03;7.53;;;6.70;;
16640;SDS011;8434;47.990;7.880;2023-03-03T12:54:55;9.57;;;6.87;;
16640;SDS011;8434;47.990;7.880;2023-03-03T12:57:45;8.87;;;7.17;;
16640;SDS011;8434;47.990;7.880;2023-03-03T13:00:37;8.50;;;6.73;;
16640;SDS011;8434;47.990;7.880;2023-03-03T13:03:31;8.13;;;6.37;;
16640;SDS011;8434;47.990;7.880;2023-03-03T13:06:21;7.67;;;6.50;;
16640;SDS011;8434;47.990;7.880;2023-03-03T13:09:15;8.23;;;6.53;;
16640;SDS011;8434;47.990;7.880;2023-03-03T13:12:09;9.10;;;6.70;;
16640;SDS011;8434;47.990;7.880;2023-03-03T13:15:00;7.10;;;6.40;;
16640;SDS011;8434;47.990;7.880;2023-03-03T13:17:49;9.57;;;6.50;;
16640;SDS011;8434;47.990;7.880;2023-03-03T13:20:38;8.67;;;6.83;;
16640;SDS011;8434;47.990;7.880;2023-03-03T13:23:32;9.17;;;6.50;;
16640;SDS011;8434;47.990;7.880;2023-03-03T13:26:21;8.87;;;6.87;;
16640;SDS011;8434;47.990;7.880;2023-03-03T13:29:14;9.03;;;6.80;;
16640;SDS011;8434;47.990;7.880;2023-03-03T13:32:03;9.43;;;7.30;;
16640;SDS011;8434;47.990;7.880;2023-03-03T13:34:53;8.73;;;7.43;;
16640;SDS011;8434;47.990;7.880;2023-03-03T13:37:41;10.57;;;6.90;;
16640;SDS011;8434;47.990;7.880;2023-03-03T13:40:30;7.50;;;6.00;;
16640;SDS011;8434;47.990;7.880;2023-03-03T13:43:18;8.97;;;6.43;;
16640;SDS011;8434;47.990;7.880;2023-03-03T13:46:06;7.80;;;6.33;;
16640;SDS011;8434;47.990;7.880;2023-03-03T13:49:01;8.77;;;6.47;;
16640;SDS011;8434;47.990;7.880;2023-03-03T13:51:48;8.53;;;6.63;;
16640;SDS011;8434;47.990;7.880;2023-03-03T13:54:43;8.00;;;6.57;;
16640;SDS011;8434;47.990;7.880;2023-03-03T13:57:37;7.47;;;6.50;;
16640;SDS011;8434;47.990;7.880;2023-03-03T14:00:27;7.57;;;6.23;;
16640;SDS011;8434;47.990;7.880;2023-03-03T14:03:18;8.87;;;7.00;;
16640;SDS011;8434;47.990;7.880;2023-03-03T14:06:07;8.60;;;6.90;;
16640;SDS011;8434;47.990;7.880;2023-03-03T14:08:58;8.00;;;6.47;;
16640;SDS011;8434;47.990;7.880;2023-03-03T14:11:45;8.60;;;6.17;;
16640;SDS011;8434;47.990;7.880;2023-03-03T14:14:38;7.77;;;6.67;;
16640;SDS011;8434;47.990;7.880;2023-03-03T14:17:28;7.13;;;6.43;;
16640;SDS011;8434;47.990;7.880;2023-03-03T14:20:19;7.47;;;6.00;;
16640;SDS011;8434;47.990;7.880;2023-03-03T14:23:07;8.20;;;6.27;;
16640;SDS011;8434;47.990;7.880;2023-03-03T14:25:58;9.20;;;6.87;;
16640;SDS011;8434;47.990;7.880;2023-03-03T14:28:44;7.83;;;6.23;;
16640;SDS011;8434;47.990;7.880;2023-03-03T14:31:37;7.67;;;6.73;;
16640;SDS011;8434;47.990;7.880;2023-03-03T14:34:25;9.23;;;6.73;;
16640;SDS011;8434;47.990;7.880;2023-03-03T14:37:22;9.23;;;6.33;;
16640;SDS011;8434;47.990;7.880;2023-03-03T14:40:14;11.37;;;6.40;;
16640;SDS011;8434;47.990;7.880;2023-03-03T14:43:01;10.83;;;6.77;;
16640;SDS011;8434;47.990;7.880;2023-03-03T14:45:47;41.67;;;8.60;;
16640;SDS011;8434;47.990;7.880;2023-03-03T14:48:35;12.47;;;6.60;;
16640;SDS011;8434;47.990;7.880;2023-03-03T14:51:39;11.77;;;6.63;;
16640;SDS011;8434;47.990;7.880;2023-03-03T14:54:27;8.37;;;6.17;;
16640;SDS011;8434;47.990;7.880;2023-03-03T14:57:14;9.43;;;6.70;;
16640;SDS011;8434;47.990;7.880;2023-03-03T15:00:00;8.23;;;5.93;;
16640;SDS011;8434;47.990;7.880;2023-03-03T15:02:57;8.97;;;6.00;;
16640;SDS011;8434;47.990;7.880;2023-03-03T15:05:47;7.93;;;6.13;;
16640;SDS011;8434;47.990;7.880;2023-03-03T15:08:33;10.43;;;6.33;;
16640;SDS011;8434;47.990;7.880;2023-03-03T15:11:24;9.63;;;6.50;;
16640;SDS011;8434;47.990;7.880;2023-03-03T15:14:11;11.63;;;7.03;;
16640;SDS011;8434;47.990;7.880;2023-03-03T15:17:10;9.33;;;6.57;;
16640;SDS011;8434;47.990;7.880;2023-03-03T15:23:02;7.93;;;6.50;;
16640;SDS011;8434;47.990;7.880;2023-03-03T15:25:51;7.83;;;6.53;;
16640;SDS011;8434;47.990;7.880;2023-03-03T15:28:45;7.93;;;6.60;;
16640;SDS011;8434;47.990;7.880;2023-03-03T15:31:39;8.07;;;6.40;;
16640;SDS011;8434;47.990;7.880;2023-03-03T15:34:29;7.50;;;5.70;;
16640;SDS011;8434;47.990;7.880;2023-03-03T15:37:23;8.53;;;6.40;;
16640;SDS011;8434;47.990;7.880;2023-03-03T15:40:14;7.67;;;5.80;;
16640;SDS011;8434;47.990;7.880;2023-03-03T15:43:05;9.80;;;6.37;;
16640;SDS011;8434;47.990;7.880;2023-03-03T15:45:57;10.43;;;6.50;;
16640;SDS011;8434;47.990;7.880;2023-03-03T15:48:49;8.30;;;6.80;;
16640;SDS011;8434;47.990;7.880;2023-03-03T15:51:42;9.23;;;6.83;;
16640;SDS011;8434;47.990;7.880;2023-03-03T15:54:35;9.63;;;6.20;;
16640;SDS011;8434;47.990;7.880;2023-03-03T15:57:25;8.03;;;6.10;;
16640;SDS011;8434;47.990;7.880;2023-03-03T16:00:22;6.97;;;6.27;;
16640;SDS011;8434;47.990;7.880;2023-03-03T16:03:12;8.17;;;6.23;;
16640;SDS011;8434;47.990;7.880;2023-03-03T16:06:00;7.27;;;6.13;;
16640;SDS011;8434;47.990;7.880;2023-03-03T16:08:48;8.13;;;6.23;;
16640;SDS011;8434;47.990;7.880;2023-03-03T16:11:38;8.67;;;6.67;;
16640;SDS011;8434;47.990;7.880;2023-03-03T16:14:36;10.23;;;6.93;;
16640;SDS011;8434;47.990;7.880;2023-03-03T16:17:25;10.33;;;7.57;;
16640;SDS011;8434;47.990;7.880;2023-03-03T16:20:16;10.60;;;7.37;;
16640;SDS011;8434;47.990;7.880;2023-03-03T16:23:13;9.20;;;6.70;;
16640;SDS011;8434;47.990;7.880;2023-03-03T16:26:05;9.73;;;7.67;;
16640;SDS011;8434;47.990;7.880;2023-03-03T16:31:56;9.13;;;6.43;;
16640;SDS011;8434;47.990;7.880;2023-03-03T16:34:44;7.83;;;6.23;;
16640;SDS011;8434;47.990;7.880;2023-03-03T16:37:33;10.50;;;7.20;;
16640;SDS011;8434;47.990;7.880;2023-03-03T16:40:22;10.27;;;6.80;;
16640;SDS011;8434;47.990;7.880;2023-03-03T16:43:12;9.67;;;7.33;;
16640;SDS011;8434;47.990;7.880;2023-03-03T16:46:04;9.17;;;6.17;;
16640;SDS011;8434;47.990;7.880;2023-03-03T16:48:55;7.83;;;6.50;;
16640;SDS011;8434;47.990;7.880;2023-03-03T16:51:44;7.93;;;7.00;;
16640;SDS011;8434;47.990;7.880;2023-03-03T16:54:34;8.83;;;7.13;;
16640;SDS011;8434;47.990;7.880;2023-03-03T16:57:24;9.63;;;7.10;;
16640;SDS011;8434;47.990;7.880;2023-03-03T17:00:13;8.00;;;6.70;;
16640;SDS011;8434;47.990;7.880;2023-03-03T17:06:09;9.13;;;7.03;;
16640;SDS011;8434;47.990;7.880;2023-03-03T17:09:00;8.63;;;6.63;;
16640;SDS011;8434;47.990;7.880;2023-03-03T17:11:50;8.93;;;6.53;;
16640;SDS011;8434;47.990;7.880;2023-03-03T17:14:46;8.60;;;7.27;;
16640;SDS011;8434;47.990;7.880;2023-03-03T17:17:38;8.60;;;6.30;;
16640;SDS011;8434;47.990;7.880;2023-03-03T17:20:28;7.77;;;6.30;;
16640;SDS011;8434;47.990;7.880;2023-03-03T17:23:22;8.70;;;6.90;;
16640;SDS011;8434;47.990;7.880;2023-03-03T17:26:20;9.77;;;7.00;;
16640;SDS011;8434;47.990;7.880;2023-03-03T17:29:19;10.27;;;6.83;;
16640;SDS011;8434;47.990;7.880;2023-03-03T17:32:12;8.43;;;6.70;;
16640;SDS011;8434;47.990;7.880;2023-03-03T17:35:13;8.37;;;6.57;;
16640;SDS011;8434;47.990;7.880;2023-03-03T17:38:05;9.97;;;6.97;;
16640;SDS011;8434;47.990;7.880;2023-03-03T17:40:57;7.70;;;6.90;;
16640;SDS011;8434;47.990;7.880;2023-03-03T17:43:47;8.47;;;6.60;;